Latest Weather Observations for Port Fairy

IDV60801

Issued at 9:05 pm EDT Tuesday 21 October 2014 (issued every 30 minutes, with the page automatically refreshed every 10 minutes)

About weather observations | Map of weather stations | Latest weather observations for VIC | Other Formats
Station Details ID: 090175 Name: PORT FAIRY AWS Lat: -38.39 Lon: 142.23 Height: 10.0 m
Data from the previous 72 hours. | See also: Recent months at Port Fairy
Date/Time
EDT
Temp
°C
App
Temp
°C
Dew
Point
Rel
Hum
%
Delta-T
°C
Wind Press
QNH
hPa
Press
MSL
hPa
Rain
since 9 am
mm
Dir
 
Spd
km/h
Gust
km/h
Spd
kts
Gust
kts
21/09:00pm 15.4 14.4 13.4 88 1.1 E 11 19 6 10 1020.4 1020.4 0.0
21/08:30pm 15.3 14.2 13.0 86 1.3 E 11 15 6 8 1020.6 1020.6 0.0
21/08:00pm 15.6 14.7 12.7 83 1.6 E 9 15 5 8 1020.7 1020.7 0.0
21/07:30pm 16.0 14.4 12.7 81 1.8 E 13 19 7 10 1020.7 1020.7 0.0
21/07:00pm 16.7 15.1 12.8 78 2.2 E 13 19 7 10 1020.8 1020.8 0.0
21/06:30pm 17.1 15.6 13.0 77 2.3 ESE 13 22 7 12 1020.9 1020.9 0.0
21/06:00pm 17.6 15.3 13.1 75 2.5 ESE 17 28 9 15 1021.1 1021.1 0.0
21/05:30pm 18.6 16.5 13.7 73 2.8 ESE 17 26 9 14 1021.2 1021.2 0.0
21/05:00pm 18.1 16.0 13.6 75 2.5 ESE 17 24 9 13 1021.7 1021.7 0.0
21/04:30pm 17.8 15.2 13.3 75 2.5 ESE 19 24 10 13 1021.8 1021.8 0.0
21/04:00pm 18.4 16.1 14.1 76 2.5 SE 19 26 10 14 1021.9 1021.9 0.0
21/03:30pm 18.6 16.7 14.1 75 2.6 SE 17 22 9 12 1022.2 1022.2 0.0
21/03:00pm 18.9 17.3 14.0 73 2.8 SE 15 20 8 11 1022.8 1022.8 0.0
21/02:30pm 19.0 17.4 13.8 72 3.0 SE 15 20 8 11 1023.0 1023.0 0.0
21/02:00pm 19.0 16.8 13.4 70 3.2 SE 17 20 9 11 1023.5 1023.5 0.0
21/01:30pm 19.7 18.5 13.9 69 3.3 SE 13 19 7 10 1023.7 1023.7 0.0
21/01:00pm 19.2 17.4 12.2 64 3.9 SE 13 17 7 9 1023.9 1023.9 0.0
21/12:30pm 20.9 19.7 12.8 60 4.6 ESE 11 15 6 8 1024.1 1024.1 0.0
21/12:00pm 19.1 17.2 11.9 63 4.0 ESE 13 15 7 8 1024.6 1024.6 0.0
21/11:30am 19.0 18.0 12.3 65 3.7 E 9 15 5 8 1024.9 1024.9 0.0
21/11:00am 18.1 17.0 12.1 68 3.3 ENE 9 17 5 9 1025.1 1025.1 0.0
21/10:30am 16.2 14.1 11.2 72 2.7 E 13 19 7 10 1025.2 1025.2 0.0
21/10:00am 14.9 12.7 10.9 77 2.1 ENE 13 22 7 12 1025.5 1025.5 0.0
21/09:30am 13.0 10.4 9.4 79 1.8 ENE 13 20 7 11 1025.5 1025.5 0.0
21/09:00am 12.1 9.8 9.1 82 1.5 ENE 11 20 6 11 1025.7 1025.7 0.0
21/08:30am 11.1 7.9 8.5 84 1.3 ENE 15 24 8 13 1025.7 1025.7 0.0
21/08:00am 10.3 7.4 8.1 86 1.1 ENE 13 19 7 10 1025.7 1025.7 0.0
21/07:30am 10.2 6.9 8.0 86 1.1 NE 15 22 8 12 1025.4 1025.4 0.0
21/07:00am 10.3 6.3 8.1 86 1.1 ENE 19 30 10 16 1025.3 1025.3 0.0
21/06:30am 9.9 6.9 7.8 87 1.0 ENE 13 24 7 13 1025.2 1025.2 0.0
21/06:00am 9.8 6.8 7.7 87 1.0 ENE 13 19 7 10 1025.1 1025.1 0.0
21/05:30am 9.9 7.3 7.7 86 1.1 ENE 11 19 6 10 1025.3 1025.3 0.0
21/05:00am 9.9 7.7 7.7 86 1.0 ENE 9 15 5 8 1025.5 1025.5 0.0
21/04:30am 9.8 7.5 7.4 85 1.1 ENE 9 15 5 8 1025.7 1025.7 0.0
21/04:00am 10.0 7.7 7.6 85 1.1 ENE 9 19 5 10 1025.8 1025.8 0.0
21/03:30am 10.2 7.9 7.6 84 1.2 ENE 9 15 5 8 1026.0 1026.0 0.0
21/03:00am 10.6 6.8 7.7 82 1.4 ENE 17 28 9 15 1026.0 1026.0 0.0
21/02:30am 11.0 6.7 7.9 81 1.5 ENE 20 30 11 16 1026.2 1026.2 0.0
21/02:00am 11.6 7.4 8.3 80 1.6 E 20 32 11 17 1026.7 1026.7 0.0
21/01:30am 11.9 7.7 8.4 79 1.7 E 20 37 11 20 1027.2 1027.2 0.0
21/01:00am 12.0 7.9 8.5 79 1.7 E 20 41 11 22 1027.5 1027.5 0.0
21/12:30am 12.2 8.1 8.5 78 1.8 E 20 30 11 16 1027.7 1027.7 0.0
21/12:00am 12.1 7.9 8.2 77 1.9 E 20 32 11 17 1028.0 1028.0 0.0
 
Date/Time
EDT
Temp
°C
App
Temp
°C
Dew
Point
Rel
Hum
%
Delta-T
°C
Wind Press
QNH
hPa
Press
MSL
hPa
Rain
since 9 am
mm
Dir
 
Spd
km/h
Gust
km/h
Spd
kts
Gust
kts
20/11:30pm 12.0 7.8 8.1 77 1.9 E 20 30 11 16 1028.1 1028.1 0.0
20/11:00pm 12.0 7.7 7.9 76 2.0 E 20 28 11 15 1028.3 1028.3 0.0
20/10:30pm 11.8 7.5 7.7 76 2.0 E 20 30 11 16 1028.5 1028.5 0.0
20/10:00pm 11.9 7.6 7.8 76 2.0 E 20 28 11 15 1028.5 1028.5 0.0
20/09:30pm 12.6 8.0 8.1 74 2.2 E 22 32 12 17 1028.5 1028.5 0.0
20/09:00pm 12.9 8.1 8.8 76 2.0 E 24 37 13 20 1028.2 1028.2 0.0
20/08:30pm 13.2 7.7 9.1 76 2.1 ESE 28 41 15 22 1027.8 1027.8 0.0
20/08:13pm 13.3 7.8 9.2 76 2.1 ESE 28 46 15 25 1027.6 1027.6 0.0
20/08:00pm 13.0 7.0 8.7 75 2.1 ESE 30 44 16 24 1027.6 1027.6 0.0
20/07:30pm 13.4 7.5 8.9 74 2.3 ESE 30 41 16 22 1027.6 1027.6 0.0
20/07:00pm 13.6 7.2 8.7 72 2.4 ESE 32 46 17 25 1027.4 1027.4 0.0
20/06:30pm 14.0 7.5 8.8 71 2.6 SE 33 46 18 25 1027.5 1027.5 0.0
20/06:00pm 14.4 7.9 8.8 69 2.8 SE 33 44 18 24 1027.9 1027.9 0.0
20/05:30pm 14.8 8.1 8.3 65 3.3 ESE 33 44 18 24 1028.0 1028.0 0.0
20/05:00pm 14.7 7.8 7.3 61 3.6 SE 33 44 18 24 1028.5 1028.5 0.0
20/04:30pm 14.9 8.0 7.2 60 3.8 SE 33 44 18 24 1028.8 1028.8 0.0
20/04:00pm 14.8 7.4 6.9 59 3.8 SE 35 46 19 25 1028.7 1028.7 0.0
20/03:30pm 14.8 7.4 6.6 58 4.0 SE 35 50 19 27 1028.9 1028.9 0.0
20/03:00pm 14.9 7.5 6.7 58 4.0 SE 35 50 19 27 1029.2 1029.2 0.0
20/02:30pm 15.4 8.5 7.4 59 4.0 SE 33 46 18 25 1029.5 1029.5 0.0
20/02:00pm 15.0 7.9 6.3 56 4.2 SE 33 43 18 23 1029.9 1029.9 0.0
20/01:30pm 15.3 8.9 6.8 57 4.2 ESE 30 44 16 24 1030.2 1030.2 0.0
20/01:00pm 15.1 8.1 6.9 58 4.0 SE 33 44 18 24 1030.1 1030.1 0.0
20/12:30pm 15.0 8.8 6.3 56 4.2 SE 28 39 15 21 1030.6 1030.6 0.0
20/12:00pm 14.6 8.0 5.9 56 4.1 ESE 30 41 16 22 1031.1 1031.1 0.0
20/11:30am 14.2 7.8 5.3 55 4.2 ESE 28 41 15 22 1031.4 1031.4 0.0
20/11:00am 14.3 8.8 5.7 56 4.0 E 24 37 13 20 1031.6 1031.6 0.0
20/10:30am 13.9 7.9 5.5 57 4.0 E 26 39 14 21 1031.3 1031.3 0.0
20/10:00am 13.5 7.0 4.9 56 3.9 E 28 43 15 23 1031.5 1031.5 0.0
20/09:30am 13.5 8.3 5.4 58 3.8 E 22 37 12 20 1031.4 1031.4 0.0
20/09:00am 12.9 6.8 4.6 57 3.8 E 26 39 14 21 1031.4 1031.4 0.0
20/08:30am 12.5 6.4 4.7 59 3.6 ESE 26 37 14 20 1031.0 1031.0 0.0
20/08:00am 12.0 5.5 4.5 60 3.4 E 28 41 15 22 1030.5 1030.5 0.0
20/07:30am 11.6 6.0 5.3 65 2.9 E 24 35 13 19 1030.4 1030.4 0.0
20/07:00am 10.8 5.9 4.9 67 2.6 E 20 30 11 16 1030.2 1030.2 0.0
20/06:30am 10.8 6.1 5.3 69 2.5 E 19 30 10 16 1030.0 1030.0 0.0
20/06:00am 11.1 6.5 5.4 68 2.6 E 19 28 10 15 1029.7 1029.7 0.0
20/05:30am 11.5 6.1 4.3 61 3.2 ESE 22 39 12 21 1029.5 1029.5 0.0
20/05:00am 11.6 5.5 5.0 64 3.0 ESE 26 35 14 19 1029.0 1029.0 0.0
20/04:30am 11.8 5.9 5.7 66 2.8 ESE 26 37 14 20 1029.0 1029.0 0.0
20/04:00am 11.7 7.4 5.1 64 3.0 ESE 17 26 9 14 1028.9 1028.9 0.0
20/03:30am 11.9 5.2 5.5 65 3.0 SE 30 39 16 21 1029.0 1029.0 0.0
20/03:00am 11.4 5.0 5.1 65 2.9 SE 28 39 15 21 1029.2 1029.2 0.0
20/02:30am 12.1 5.2 6.4 68 2.7 SE 32 41 17 22 1029.2 1029.2 0.0
20/02:00am 11.9 7.3 6.6 70 2.5 ESE 20 30 11 16 1029.3 1029.3 0.0
20/01:30am 11.5 6.1 6.4 71 2.4 ESE 24 32 13 17 1029.4 1029.4 0.0
20/01:00am 11.8 5.8 7.1 73 2.2 SE 28 41 15 22 1029.7 1029.7 0.0
20/12:30am 12.2 6.3 7.7 74 2.2 SE 28 35 15 19 1029.7 1029.7 0.0
20/12:00am 12.1 5.9 8.0 76 2.0 SE 30 39 16 21 1029.5 1029.5 0.0
 
Date/Time
EDT
Temp
°C
App
Temp
°C
Dew
Point
Rel
Hum
%
Delta-T
°C
Wind Press
QNH
hPa
Press
MSL
hPa
Rain
since 9 am
mm
Dir
 
Spd
km/h
Gust
km/h
Spd
kts
Gust
kts
19/11:30pm 12.3 6.9 8.0 75 2.1 SE 26 33 14 18 1029.4 1029.4 0.0
19/11:00pm 12.2 6.2 8.7 79 1.7 SSE 30 39 16 21 1029.2 1029.2 0.0
19/10:30pm 11.7 5.8 9.1 84 1.3 SE 30 37 16 20 1029.0 1029.0 0.0
19/10:00pm 11.7 5.2 9.1 84 1.3 SSE 33 41 18 22 1029.1 1029.1 0.0
19/09:30pm 12.4 6.5 9.2 81 1.6 SSE 30 39 16 21 1028.7 1028.7 0.0
19/09:00pm 12.2 6.0 9.2 82 1.5 SSE 32 43 17 23 1028.3 1028.3 0.0
19/08:30pm 12.7 7.4 9.7 82 1.5 S 28 37 15 20 1027.9 1027.9 0.0
19/08:00pm 12.6 7.2 9.6 82 1.5 S 28 35 15 19 1027.3 1027.3 0.0
19/07:30pm 12.9 8.0 10.1 83 1.4 S 26 35 14 19 1026.8 1026.8 0.0
19/07:00pm 13.5 8.0 10.5 82 1.6 S 30 41 16 22 1025.9 1025.9 0.0
19/06:30pm 13.9 9.3 10.9 82 1.6 S 26 37 14 20 1025.0 1025.0 0.0
19/06:00pm 14.3 10.5 11.1 81 1.7 S 22 30 12 16 1024.4 1024.4 0.0
19/05:30pm 14.9 12.6 11.9 82 1.6 S 15 22 8 12 1024.4 1024.4 0.0
19/05:00pm 14.6 11.3 11.7 83 1.6 S 20 26 11 14 1024.1 1024.1 0.0
19/04:30pm 14.7 12.5 12.2 85 1.4 SSW 15 20 8 11 1023.6 1023.6 0.0
19/04:00pm 14.8 11.3 12.1 84 1.5 SSW 22 30 12 16 1023.7 1023.7 0.0
19/03:30pm 15.7 13.6 12.3 80 1.9 SSW 15 26 8 14 1023.4 1023.4 0.0
19/03:00pm 15.3 13.5 12.1 81 1.7 S 13 17 7 9 1022.4 1022.4 0.0
19/02:30pm 15.4 13.7 12.3 82 1.7 SSW 13 19 7 10 1022.6 1022.6 0.0
19/02:00pm 15.6 14.4 12.7 83 1.6 S 11 17 6 9 1021.9 1021.9 0.0
19/01:30pm 14.9 11.9 12.0 83 1.6 S 19 26 10 14 1022.1 1022.1 0.0
19/01:00pm 16.0 14.3 13.5 85 1.4 S 15 24 8 13 1021.6 1021.6 0.0
19/12:30pm 15.4 13.5 12.9 85 1.4 SSW 15 22 8 12 1021.6 1021.6 0.0
19/12:00pm 15.1 12.8 13.1 88 1.1 SSW 17 22 9 12 1021.4 1021.4 0.0
19/11:30am 15.3 14.8 13.7 90 0.9 SSW 9 15 5 8 1021.1 1021.1 0.0
19/11:00am 14.6 13.5 13.1 91 0.8 SSW 11 17 6 9 1020.7 1020.7 0.0
19/10:30am 14.7 14.5 13.6 93 0.6 S 7 11 4 6 1020.5 1020.5 0.0
19/10:00am 14.5 14.5 13.5 94 0.6 S 6 7 3 4 1020.0 1020.0 0.0
19/09:30am 14.1 14.0 13.3 95 0.4 ESE 6 7 3 4 1019.8 1019.8 0.0
19/09:00am 13.9 14.1 13.1 95 0.4 SSE 4 6 2 3 1020.1 1020.1 0.0
19/08:30am 13.7 13.8 12.8 94 0.5 NNE 4 7 2 4 1019.6 1019.6 0.0
19/08:00am 13.0 13.3 12.1 94 0.5 NE 2 4 1 2 1019.6 1019.6 0.0
19/07:30am 12.9 12.3 11.8 93 0.6 NNE 6 7 3 4 1019.5 1019.5 0.0
19/07:00am 12.4 12.8 11.3 93 0.6 CALM 0 0 0 0 1019.6 1019.6 0.0
19/06:30am 12.1 12.4 11.0 93 0.6 CALM 0 0 0 0 1019.3 1019.3 0.0
19/06:00am 11.7 11.9 10.6 93 0.6 CALM 0 0 0 0 1019.4 1019.4 0.0
19/05:30am 11.4 11.2 10.3 93 0.6 WNW 2 4 1 2 1019.2 1019.2 0.0
19/05:00am 11.2 10.5 10.0 92 0.6 N 4 6 2 3 1018.7 1018.7 0.0
19/04:30am 10.6 9.4 9.4 92 0.6 N 6 6 3 3 1018.6 1018.6 0.0
19/04:00am 10.9 9.7 9.5 91 0.7 N 6 7 3 4 1018.8 1018.8 0.0
19/03:30am 11.5 10.4 9.9 90 0.8 N 6 7 3 4 1019.4 1019.4 0.0
19/03:00am 13.3 13.4 11.5 89 1.0 N 2 4 1 2 1019.7 1019.7 0.0
19/02:30am 14.0 13.0 12.2 89 1.0 W 9 13 5 7 1019.5 1019.5 0.0
19/02:00am 14.4 12.3 12.3 87 1.1 WSW 15 20 8 11 1019.6 1019.6 0.0
19/01:30am 14.3 12.4 11.8 85 1.3 WSW 13 17 7 9 1019.7 1019.7 0.0
19/01:00am 14.0 12.2 10.8 81 1.7 W 11 13 6 7 1019.9 1019.9 0.0
19/12:30am 13.6 12.2 9.6 77 2.0 W 7 13 4 7 1019.8 1019.8 0.0
19/12:00am 15.0 13.9 10.8 76 2.2 WNW 7 11 4 6 1019.5 1019.5 0.0
 
Date/Time
EDT
Temp
°C
App
Temp
°C
Dew
Point
Rel
Hum
%
Delta-T
°C
Wind Press
QNH
hPa
Press
MSL
hPa
Rain
since 9 am
mm
Dir
 
Spd
km/h
Gust
km/h
Spd
kts
Gust
kts
18/11:30pm 15.6 13.5 11.0 74 2.5 W 13 19 7 10 1019.5 1019.5 0.0
18/11:00pm 15.8 13.6 9.5 66 3.3 W 11 17 6 9 1019.4 1019.4 0.0
18/10:30pm 16.8 14.2 9.5 62 3.8 W 13 17 7 9 1019.4 1019.4 0.0
18/10:00pm 17.8 16.7 9.9 60 4.2 NNW 6 - 3 - - 1019.2 -
18/09:30pm 19.7 17.6 9.9 53 5.2 N 11 17 6 9 1018.9 1018.9 0.0

Other Formats:

Comma delimited format used in spreadsheet applications
http://www.bom.gov.au/fwo/IDV60801/IDV60801.94830.axf

JavaScript Object Notation format (JSON) in row-major order
http://www.bom.gov.au/fwo/IDV60801/IDV60801.94830.json